Time;durP1;ratioP1;P1;durP2;ratioP2;P2;SDS_P1;SDS_P2;PMS_P1;PMS_P2;Temp;Humidity;BMP_temperature;BMP_pressure;BME280_temperature;BME280_humidity;BME280_pressure;Samples;Min_cycle;Max_cycle;Signal;HPM_P1;HPM_P2
2023/09/22 00:00:18;;;;;;;3.20;2.60;;;;;;;17.82;75.08;99198.04;131005;1252;107616;-77
2023/09/22 00:03:44;;;;;;;4.90;2.70;;;;;;;17.86;75.07;99198.39;131061;1253;110238;-77
2023/09/22 00:06:49;;;;;;;4.30;2.80;;;;;;;17.89;75.00;99195.66;130995;1254;107509;-77
2023/09/22 00:09:55;;;;;;;4.50;2.80;;;;;;;17.90;75.07;99192.94;131021;1254;107192;-77
2023/09/22 00:13:01;;;;;;;4.40;2.70;;;;;;;17.90;75.19;99194.98;131068;1251;106813;-77
2023/09/22 00:16:07;;;;;;;3.80;2.40;;;;;;;17.89;75.17;99190.30;131005;1253;107841;-77
2023/09/22 00:19:12;;;;;;;5.10;2.80;;;;;;;17.90;75.32;99192.08;131039;1256;106591;-77
2023/09/22 00:22:18;;;;;;;6.50;3.40;;;;;;;17.95;75.29;99186.65;131007;1252;107225;-77
2023/09/22 00:25:23;;;;;;;3.60;2.90;;;;;;;17.98;75.29;99183.88;130959;1251;108932;-78
2023/09/22 00:28:29;;;;;;;4.40;3.00;;;;;;;17.99;75.35;99183.44;131038;1258;109375;-78
2023/09/22 00:31:34;;;;;;;5.40;3.00;;;;;;;17.99;75.42;99175.38;130983;1256;108576;-78
2023/09/22 00:34:41;;;;;;;4.20;3.10;;;;;;;17.98;75.35;99174.65;130992;1256;107576;-78
2023/09/22 00:37:47;;;;;;;5.00;2.70;;;;;;;17.96;75.43;99172.93;130977;1256;107882;-78
2023/09/22 00:40:52;;;;;;;5.10;2.90;;;;;;;17.95;75.53;99176.77;130937;1252;106489;-78
2023/09/22 00:43:58;;;;;;;3.70;2.20;;;;;;;17.94;75.55;99179.69;131062;1251;106927;-78
2023/09/22 00:47:06;;;;;;;4.10;2.70;;;;;;;17.96;75.60;99182.61;130844;1256;107727;-78
2023/09/22 00:50:14;;;;;;;4.90;2.60;;;;;;;17.99;75.57;99183.36;130924;1256;107057;-77
2023/09/22 00:53:21;;;;;;;3.40;2.80;;;;;;;17.99;75.61;99180.08;130968;1255;107747;-78
2023/09/22 00:56:27;;;;;;;4.00;3.00;;;;;;;17.96;75.64;99176.49;130972;1256;107622;-78
2023/09/22 00:59:34;;;;;;;4.00;2.70;;;;;;;17.91;75.62;99177.61;131002;1252;106959;-78
2023/09/22 01:02:40;;;;;;;5.60;3.00;;;;;;;17.86;75.74;99173.73;131119;1256;107549;-78
2023/09/22 01:05:46;;;;;;;3.30;2.50;;;;;;;17.76;75.78;99166.17;130972;1254;109363;-78
2023/09/22 01:08:52;;;;;;;3.50;2.80;;;;;;;17.75;75.93;99175.70;131042;1254;107792;-78
2023/09/22 01:11:57;;;;;;;6.10;3.20;;;;;;;17.72;76.01;99168.23;130910;1251;107154;-77
2023/09/22 01:15:03;;;;;;;5.00;2.60;;;;;;;17.70;76.09;99166.35;131021;1251;107499;-77
2023/09/22 01:18:10;;;;;;;5.00;3.00;;;;;;;17.68;76.05;99164.38;131082;1253;105857;-78
2023/09/22 01:21:16;;;;;;;3.00;2.70;;;;;;;17.62;76.17;99160.09;131136;1251;107322;-78
2023/09/22 01:24:21;;;;;;;4.60;2.90;;;;;;;17.57;76.26;99151.73;130878;1253;107789;-78
2023/09/22 01:27:27;;;;;;;3.80;2.90;;;;;;;17.50;76.36;99151.30;130874;1257;108448;-77
2023/09/22 01:30:33;;;;;;;5.10;2.60;;;;;;;17.45;76.48;99152.98;130969;1254;106775;-78
2023/09/22 01:33:40;;;;;;;4.30;2.90;;;;;;;17.40;76.52;99153.63;131092;1254;107847;-77
2023/09/22 01:36:49;;;;;;;4.40;2.70;;;;;;;17.38;76.72;99150.48;131022;1256;106677;-78
2023/09/22 01:39:55;;;;;;;3.90;3.00;;;;;;;17.37;76.69;99152.66;131127;1256;107434;-77
2023/09/22 01:43:00;;;;;;;4.40;2.70;;;;;;;17.35;76.68;99142.67;130973;1250;107686;-77
2023/09/22 01:46:06;;;;;;;4.60;2.70;;;;;;;17.31;76.77;99147.04;131015;1251;108536;-77
2023/09/22 01:49:12;;;;;;;4.00;2.90;;;;;;;17.25;76.82;99147.39;131014;1256;108415;-77
2023/09/22 01:52:19;;;;;;;4.70;2.70;;;;;;;17.20;76.95;99142.61;130851;1264;215221;-77
2023/09/22 01:55:24;;;;;;;5.00;2.80;;;;;;;17.15;77.11;99143.06;130980;1251;108243;-78
2023/09/22 01:58:30;;;;;;;4.90;3.20;;;;;;;17.14;77.07;99138.98;131157;1251;108742;-78
2023/09/22 02:01:36;;;;;;;4.90;2.90;;;;;;;17.14;77.28;99143.45;131014;1254;108172;-78
2023/09/22 02:04:42;;;;;;;4.10;2.90;;;;;;;17.11;77.21;99141.20;131074;1254;107542;-78
2023/09/22 02:07:47;;;;;;;4.40;3.20;;;;;;;17.08;77.29;99141.60;131006;1254;107202;-76
2023/09/22 02:10:53;;;;;;;3.80;3.10;;;;;;;17.03;77.38;99134.98;131003;1253;106214;-76
2023/09/22 02:13:59;;;;;;;4.00;2.70;;;;;;;16.99;77.53;99137.70;130990;1256;107591;-76
2023/09/22 02:17:05;;;;;;;3.80;2.70;;;;;;;16.97;77.53;99132.31;131012;1256;107550;-76
2023/09/22 02:20:17;;;;;;;3.50;2.80;;;;;;;16.96;77.72;99130.98;131115;1254;107225;-76
2023/09/22 02:23:26;;;;;;;4.40;3.10;;;;;;;16.95;77.69;99128.70;131120;1251;106575;-78
2023/09/22 02:26:31;;;;;;;3.80;2.80;;;;;;;16.93;77.82;99125.42;131104;1251;107770;-77
2023/09/22 02:29:37;;;;;;;3.40;2.80;;;;;;;16.90;77.81;99119.02;131378;1252;106284;-78
2023/09/22 02:32:47;;;;;;;4.80;3.10;;;;;;;16.85;77.98;99119.84;131129;1254;107418;-77
2023/09/22 02:35:53;;;;;;;3.90;2.80;;;;;;;16.80;78.12;99113.90;131199;1255;107650;-80
2023/09/22 02:38:58;;;;;;;4.80;3.00;;;;;;;16.79;78.25;99113.04;131704;1252;106517;-81
2023/09/22 02:42:04;;;;;;;4.30;3.20;;;;;;;16.78;78.30;99113.34;131601;1250;108520;-80
2023/09/22 02:45:11;;;;;;;4.40;3.20;;;;;;;16.78;78.37;99110.90;131181;1251;107183;-78
2023/09/22 02:48:17;;;;;;;4.00;3.20;;;;;;;16.78;78.55;99109.66;131560;1253;106719;-78
2023/09/22 02:51:22;;;;;;;4.50;3.20;;;;;;;16.77;78.43;99113.55;131089;1254;107007;-78
2023/09/22 02:54:28;;;;;;;4.60;3.20;;;;;;;16.74;78.49;99107.39;130962;1251;106882;-78
2023/09/22 02:57:34;;;;;;;4.70;3.40;;;;;;;16.72;78.59;99104.78;131027;1256;108427;-78
2023/09/22 03:00:43;;;;;;;6.20;3.20;;;;;;;16.69;78.80;99104.06;131038;1254;108034;-78
2023/09/22 03:03:48;;;;;;;6.10;3.20;;;;;;;16.68;78.84;99106.88;131209;1250;107796;-78
2023/09/22 03:06:54;;;;;;;5.40;3.40;;;;;;;16.67;78.85;99109.59;131018;1251;107088;-78
2023/09/22 03:09:59;;;;;;;6.20;3.30;;;;;;;16.66;78.91;99109.17;131018;1256;106517;-78
2023/09/22 03:13:05;;;;;;;4.80;3.60;;;;;;;16.63;78.94;99103.98;130955;1253;107087;-76
2023/09/22 03:16:11;;;;;;;7.00;3.40;;;;;;;16.60;79.03;99100.73;131008;1255;106542;-78
2023/09/22 03:19:16;;;;;;;6.60;4.10;;;;;;;16.55;79.13;99098.96;131031;1251;107903;-78
2023/09/22 03:22:22;;;;;;;5.50;3.50;;;;;;;16.52;79.24;99099.52;130931;1254;107995;-76
2023/09/22 03:25:28;;;;;;;5.60;3.70;;;;;;;16.52;79.33;99096.08;131025;1254;106558;-77
2023/09/22 03:28:33;;;;;;;4.80;3.30;;;;;;;16.52;79.48;99094.35;130946;1253;106849;-76
2023/09/22 03:31:39;;;;;;;6.80;4.90;;;;;;;16.52;79.47;99099.61;131126;1255;107658;-77
2023/09/22 03:34:46;;;;;;;6.50;4.50;;;;;;;16.49;79.59;99095.90;131044;1253;106947;-76
2023/09/22 03:37:52;;;;;;;6.30;3.40;;;;;;;16.46;79.60;99093.84;130964;1254;106969;-76
2023/09/22 03:41:00;;;;;;;4.40;3.10;;;;;;;16.43;79.74;99090.51;131051;1257;106738;-76
2023/09/22 03:44:07;;;;;;;4.90;3.60;;;;;;;16.43;79.80;99095.08;130985;1254;106582;-76
2023/09/22 03:47:12;;;;;;;5.40;3.40;;;;;;;16.42;79.83;99096.21;131023;1255;107787;-76
2023/09/22 03:50:18;;;;;;;4.70;3.70;;;;;;;16.43;79.89;99104.40;131130;1256;107710;-76
2023/09/22 03:53:24;;;;;;;4.80;3.70;;;;;;;16.43;79.97;99103.80;131032;1253;107442;-76
2023/09/22 03:56:31;;;;;;;4.70;3.20;;;;;;;16.41;80.03;99097.40;130873;1250;107449;-77
2023/09/22 03:59:37;;;;;;;3.70;3.10;;;;;;;16.40;80.13;99093.45;130974;1256;106801;-76
2023/09/22 04:02:42;;;;;;;5.20;3.30;;;;;;;16.40;80.18;99088.52;130979;1254;108720;-77
2023/09/22 04:05:48;;;;;;;6.30;3.50;;;;;;;16.42;80.31;99087.80;130920;1254;106254;-77
2023/09/22 04:08:54;;;;;;;5.40;3.60;;;;;;;16.47;80.58;99080.84;130991;1253;107722;-77
2023/09/22 04:11:59;;;;;;;4.10;3.50;;;;;;;16.53;80.56;99079.78;130993;1253;107068;-77
2023/09/22 04:15:06;;;;;;;6.00;3.80;;;;;;;16.58;80.61;99079.95;130939;1253;107715;-77
2023/09/22 04:18:13;;;;;;;6.60;3.40;;;;;;;16.61;80.66;99080.45;131023;1252;106532;-77
2023/09/22 04:21:21;;;;;;;4.30;3.40;;;;;;;16.64;80.71;99073.85;131154;1253;107817;-77
2023/09/22 04:24:31;;;;;;;4.80;3.70;;;;;;;16.70;80.72;99069.77;131041;1256;107700;-77
2023/09/22 04:27:42;;;;;;;5.60;4.00;;;;;;;16.77;80.73;99079.23;131262;1256;107632;-79
2023/09/22 04:30:48;;;;;;;5.50;3.80;;;;;;;16.80;80.86;99079.00;130978;1254;106739;-75
2023/09/22 04:33:54;;;;;;;5.70;3.80;;;;;;;16.84;80.97;99084.17;131033;1256;108007;-74
2023/09/22 04:36:59;;;;;;;4.40;3.50;;;;;;;16.87;80.86;99084.06;130934;1256;107615;-76
2023/09/22 04:40:09;;;;;;;4.60;3.30;;;;;;;16.91;80.77;99085.52;130972;1250;106731;-74
2023/09/22 04:43:15;;;;;;;5.60;3.80;;;;;;;16.96;80.88;99087.95;130907;1251;107604;-74
2023/09/22 04:46:21;;;;;;;4.00;3.50;;;;;;;17.03;80.82;99085.89;130983;1256;109174;-74
2023/09/22 04:49:27;;;;;;;5.40;3.70;;;;;;;17.08;80.84;99087.11;130955;1256;107654;-76
2023/09/22 04:52:32;;;;;;;5.80;4.10;;;;;;;17.12;80.86;99087.61;131022;1251;107795;-75
2023/09/22 04:55:38;;;;;;;4.70;3.60;;;;;;;17.17;80.81;99089.85;130939;1250;107885;-75
2023/09/22 04:58:44;;;;;;;6.10;3.50;;;;;;;17.19;80.81;99091.69;131191;1254;106883;-75
2023/09/22 05:01:50;;;;;;;4.90;3.70;;;;;;;17.20;80.82;99087.73;130949;1255;109072;-75
2023/09/22 05:04:56;;;;;;;4.30;3.30;;;;;;;17.23;80.85;99090.73;131220;1250;107748;-76
2023/09/22 05:08:01;;;;;;;5.90;4.00;;;;;;;17.26;80.81;99101.77;131043;1252;108910;-75
2023/09/22 05:11:08;;;;;;;5.20;3.60;;;;;;;17.29;80.94;99110.11;130982;1256;107691;-75
2023/09/22 05:14:14;;;;;;;5.70;3.60;;;;;;;17.32;80.88;99125.02;130920;1251;107548;-75
2023/09/22 05:17:20;;;;;;;5.40;3.60;;;;;;;17.34;80.89;99115.73;130981;1254;107648;-74
2023/09/22 05:20:26;;;;;;;4.90;3.60;;;;;;;17.33;80.92;99110.42;130936;1256;107680;-75
2023/09/22 05:23:33;;;;;;;5.10;3.30;;;;;;;17.34;80.84;99109.15;130881;1253;106384;-75
2023/09/22 05:26:38;;;;;;;4.80;3.30;;;;;;;17.36;80.94;99111.59;130934;1254;108124;-75
2023/09/22 05:29:44;;;;;;;5.10;3.70;;;;;;;17.39;80.96;99103.97;130846;1251;106632;-75
2023/09/22 05:32:50;;;;;;;5.40;3.80;;;;;;;17.44;80.92;99100.80;131011;1256;106541;-77
2023/09/22 05:35:55;;;;;;;5.30;4.00;;;;;;;17.48;80.91;99092.26;130944;1254;107367;-75
2023/09/22 05:39:01;;;;;;;7.60;4.30;;;;;;;17.51;80.95;99095.95;130939;1252;107728;-75
2023/09/22 05:42:07;;;;;;;7.30;4.70;;;;;;;17.52;80.99;99095.39;130913;1256;108115;-73
2023/09/22 05:45:13;;;;;;;6.00;3.50;;;;;;;17.56;80.94;99091.24;130960;1253;108552;-73
2023/09/22 05:48:18;;;;;;;4.60;3.50;;;;;;;17.63;80.95;99089.36;131088;1251;107724;-74
2023/09/22 05:51:24;;;;;;;6.30;3.70;;;;;;;17.73;80.87;99083.05;130936;1264;107337;-73
2023/09/22 05:54:30;;;;;;;9.40;3.80;;;;;;;17.82;80.70;99082.71;130968;1253;107581;-74
2023/09/22 05:57:35;;;;;;;7.00;3.70;;;;;;;17.86;80.70;99081.27;130901;1254;106918;-74
2023/09/22 06:00:41;;;;;;;5.20;3.70;;;;;;;17.91;80.65;99080.00;130916;1256;107882;-74
2023/09/22 06:03:47;;;;;;;6.90;3.80;;;;;;;17.96;80.82;99085.74;131035;1255;107764;-74
2023/09/22 06:06:54;;;;;;;5.00;3.60;;;;;;;18.01;80.67;99086.00;130916;1267;108513;-74
2023/09/22 06:10:04;;;;;;;5.80;3.70;;;;;;;18.17;80.68;99082.14;130941;1254;107580;-74
2023/09/22 06:13:09;;;;;;;6.10;3.70;;;;;;;18.35;80.67;99085.59;130923;1256;108576;-73
2023/09/22 06:16:15;;;;;;;5.50;3.80;;;;;;;18.49;80.30;99086.91;130945;1256;106588;-73
2023/09/22 06:19:20;;;;;;;7.90;3.80;;;;;;;18.60;80.33;99087.98;130976;1255;107191;-74
2023/09/22 06:22:26;;;;;;;5.40;3.90;;;;;;;18.70;80.19;99093.07;130945;1250;107415;-74
2023/09/22 06:25:31;;;;;;;5.40;4.20;;;;;;;18.83;80.16;99092.91;131035;1255;107715;-75
2023/09/22 06:28:38;;;;;;;6.10;3.50;;;;;;;18.96;80.08;99093.27;130906;1256;108484;-74
2023/09/22 06:31:44;;;;;;;6.00;3.70;;;;;;;19.10;80.05;99094.47;130936;1256;106909;-74
2023/09/22 06:34:52;;;;;;;4.40;3.40;;;;;;;19.25;79.93;99091.93;130917;1254;106650;-74
2023/09/22 06:37:57;;;;;;;4.30;3.50;;;;;;;19.45;79.65;99090.23;130856;1251;108625;-74
2023/09/22 06:41:04;;;;;;;7.00;3.70;;;;;;;19.62;79.47;99092.91;130975;1256;106667;-74
2023/09/22 06:44:10;;;;;;;6.00;3.80;;;;;;;19.73;79.13;99100.34;130937;1256;106878;-75
2023/09/22 06:47:15;;;;;;;5.90;3.80;;;;;;;19.79;78.93;99101.53;130943;1255;107903;-74
2023/09/22 06:50:21;;;;;;;6.60;4.10;;;;;;;19.84;78.91;99096.97;131036;1251;107754;-75
2023/09/22 06:53:29;;;;;;;7.20;4.50;;;;;;;19.85;78.88;99091.63;130869;1250;106242;-75
2023/09/22 06:56:36;;;;;;;5.40;3.70;;;;;;;19.85;78.92;99092.38;131029;1258;107558;-75
2023/09/22 06:59:42;;;;;;;6.00;3.40;;;;;;;19.86;78.71;99087.27;130937;1264;106932;-74
2023/09/22 07:02:48;;;;;;;5.60;3.70;;;;;;;19.90;78.61;99090.10;130987;1253;107141;-75
2023/09/22 07:05:54;;;;;;;7.10;3.70;;;;;;;19.99;78.61;99098.06;130943;1256;107777;-74
2023/09/22 07:08:59;;;;;;;6.80;4.10;;;;;;;20.06;78.42;99100.07;130884;1254;106675;-75
2023/09/22 07:12:06;;;;;;;5.10;3.90;;;;;;;20.08;78.23;99094.65;130888;1256;107545;-74
2023/09/22 07:15:12;;;;;;;6.00;4.00;;;;;;;20.08;78.23;99091.98;130919;1255;106889;-74
2023/09/22 07:18:17;;;;;;;6.10;4.00;;;;;;;20.07;78.21;99095.11;131044;1256;108701;-76
2023/09/22 07:21:23;;;;;;;5.90;4.10;;;;;;;20.04;78.08;99099.63;131005;1256;107424;-75
2023/09/22 07:24:28;;;;;;;8.10;4.60;;;;;;;19.99;78.24;99099.52;130912;1256;106607;-75
2023/09/22 07:27:36;;;;;;;5.80;4.20;;;;;;;20.01;78.19;99109.63;131013;1250;105835;-74
2023/09/22 07:30:42;;;;;;;7.00;3.70;;;;;;;20.09;78.20;99113.83;130876;1256;107648;-75
2023/09/22 07:33:48;;;;;;;5.70;3.90;;;;;;;20.24;78.24;99118.01;131034;1255;108733;-75
2023/09/22 07:36:53;;;;;;;6.00;4.30;;;;;;;20.46;78.11;99124.50;130936;1255;106723;-75
2023/09/22 07:39:59;;;;;;;6.00;4.10;;;;;;;20.67;77.86;99124.22;130900;1255;106926;-75
2023/09/22 07:43:05;;;;;;;9.30;4.50;;;;;;;20.92;77.56;99124.05;130923;1251;106695;-75
2023/09/22 07:46:11;;;;;;;5.60;4.30;;;;;;;21.05;77.15;99123.58;130941;1254;106602;-75
2023/09/22 07:49:16;;;;;;;5.70;4.40;;;;;;;21.13;77.11;99125.38;130963;1256;108706;-75
2023/09/22 07:52:22;;;;;;;5.10;4.60;;;;;;;21.21;77.09;99125.91;130920;1257;108347;-75
2023/09/22 07:55:28;;;;;;;5.70;4.50;;;;;;;21.26;76.88;99128.32;130895;1256;106750;-75
2023/09/22 07:58:33;;;;;;;6.20;4.70;;;;;;;21.26;76.80;99135.81;130966;1255;107102;-75
2023/09/22 08:01:42;;;;;;;6.60;4.30;;;;;;;21.24;76.61;99139.67;130945;1255;107741;-77
2023/09/22 08:04:48;;;;;;;7.00;4.40;;;;;;;21.24;76.56;99133.25;131074;1256;107764;-75
2023/09/22 08:07:54;;;;;;;5.90;4.30;;;;;;;21.27;76.52;99133.98;130934;1256;107087;-75
2023/09/22 08:10:59;;;;;;;7.50;4.40;;;;;;;21.29;76.31;99132.44;130980;1256;108891;-75
2023/09/22 08:14:05;;;;;;;6.40;4.50;;;;;;;21.33;76.21;99128.90;130967;1256;106878;-75
2023/09/22 08:17:11;;;;;;;10.30;4.80;;;;;;;21.40;76.21;99122.75;130980;1256;108618;-75
2023/09/22 08:20:17;;;;;;;7.00;4.90;;;;;;;21.46;76.02;99129.90;130983;1250;107051;-75
2023/09/22 08:23:23;;;;;;;5.90;5.00;;;;;;;21.56;76.06;99127.81;131096;1251;106599;-75
2023/09/22 08:26:31;;;;;;;7.20;4.80;;;;;;;21.70;76.05;99124.34;130971;1254;107486;-75
2023/09/22 08:29:37;;;;;;;5.30;4.00;;;;;;;21.89;75.87;99110.96;130993;1253;108665;-75
2023/09/22 08:32:44;;;;;;;8.80;4.90;;;;;;;22.00;75.52;99106.09;131034;1256;106815;-75
2023/09/22 08:35:51;;;;;;;6.50;4.70;;;;;;;22.00;75.03;99103.86;131092;1255;107755;-74
2023/09/22 08:38:58;;;;;;;9.20;5.00;;;;;;;22.02;75.08;99098.02;131005;1255;106791;-75
2023/09/22 08:42:04;;;;;;;6.50;4.80;;;;;;;22.07;74.96;99086.92;131001;1256;106789;-75
2023/09/22 08:45:11;;;;;;;6.90;5.00;;;;;;;22.10;74.89;99087.39;131038;1255;107666;-75
2023/09/22 08:48:16;;;;;;;7.60;5.20;;;;;;;22.13;74.86;99086.82;131128;1251;106803;-75
2023/09/22 08:51:22;;;;;;;7.40;5.30;;;;;;;22.11;74.64;99090.05;131135;1250;108872;-75
2023/09/22 08:54:28;;;;;;;6.80;5.00;;;;;;;22.07;74.71;99087.09;131115;1253;106937;-75
2023/09/22 08:57:34;;;;;;;6.80;5.00;;;;;;;22.12;74.67;99092.79;130909;1256;108036;-75
2023/09/22 09:00:40;;;;;;;9.60;5.30;;;;;;;22.20;74.77;99089.42;131011;1257;107718;-75
2023/09/22 09:03:46;;;;;;;8.10;4.70;;;;;;;22.30;74.49;99091.18;131114;1256;106704;-75
2023/09/22 09:06:53;;;;;;;7.80;5.10;;;;;;;22.42;74.39;99092.31;130995;1256;108667;-75
2023/09/22 09:09:59;;;;;;;6.70;4.70;;;;;;;22.55;74.13;99092.20;131001;1256;106725;-75
2023/09/22 09:13:06;;;;;;;7.00;4.80;;;;;;;22.70;74.17;99090.45;131022;1256;107695;-75
2023/09/22 09:16:29;;;;;;;7.90;5.10;;;;;;;22.84;73.89;99089.52;130960;1254;107061;-74
2023/09/22 09:19:35;;;;;;;7.50;5.40;;;;;;;22.93;73.46;99085.27;131007;1255;107693;-75
2023/09/22 09:22:41;;;;;;;7.40;5.30;;;;;;;23.06;73.62;99084.84;131022;1251;106826;-74
2023/09/22 09:25:49;;;;;;;8.70;5.50;;;;;;;23.25;73.44;99079.48;131047;1256;106302;-74
2023/09/22 09:28:55;;;;;;;9.20;5.40;;;;;;;23.39;72.97;99082.27;131071;1256;107898;-74
2023/09/22 09:32:02;;;;;;;7.90;5.20;;;;;;;23.52;72.58;99079.86;130999;1256;107687;-75
2023/09/22 09:35:11;;;;;;;8.10;5.30;;;;;;;23.66;72.53;99077.08;131077;1251;107751;-75
2023/09/22 09:38:16;;;;;;;8.70;5.50;;;;;;;23.73;71.93;99085.05;131122;1253;106998;-75
2023/09/22 09:41:23;;;;;;;12.20;5.70;;;;;;;23.79;72.05;99083.08;131155;1253;108189;-75
2023/09/22 09:44:31;;;;;;;8.00;5.10;;;;;;;23.86;71.94;99083.86;131400;1253;106678;-77
2023/09/22 09:47:44;;;;;;;8.80;5.30;;;;;;;23.95;71.71;99079.90;131217;1256;108062;-75
2023/09/22 09:50:52;;;;;;;6.80;5.40;;;;;;;24.01;71.63;99082.08;131049;1251;107291;-75
2023/09/22 09:54:04;;;;;;;10.50;5.30;;;;;;;24.07;71.48;99074.36;131087;1264;106872;-75
2023/09/22 09:57:10;;;;;;;7.90;5.90;;;;;;;24.11;71.31;99067.23;131066;1250;106649;-75
2023/09/22 10:00:19;;;;;;;9.40;5.70;;;;;;;24.13;71.26;99061.27;131160;1255;107096;-75
2023/09/22 10:03:26;;;;;;;8.60;5.50;;;;;;;24.15;70.95;99054.58;131017;1256;107939;-75
2023/09/22 10:06:34;;;;;;;9.60;5.50;;;;;;;24.18;70.66;99058.61;131155;1256;106465;-76
2023/09/22 10:09:40;;;;;;;7.70;5.40;;;;;;;24.25;70.64;99051.09;131005;1251;107748;-75
2023/09/22 10:12:46;;;;;;;10.90;5.90;;;;;;;24.36;70.56;99053.59;130958;1250;107941;-75
2023/09/22 10:15:55;;;;;;;7.10;5.50;;;;;;;24.42;70.28;99057.36;131036;1257;107953;-75
2023/09/22 10:19:02;;;;;;;6.60;5.00;;;;;;;24.49;69.78;99056.05;131017;1256;106629;-75
2023/09/22 10:22:13;;;;;;;7.10;4.80;;;;;;;24.56;69.53;99052.58;130993;1256;107030;-75
2023/09/22 10:25:26;;;;;;;8.80;5.00;;;;;;;24.58;68.88;99047.89;130975;1258;107592;-75
2023/09/22 10:28:31;;;;;;;9.10;5.40;;;;;;;24.58;68.50;99047.83;131026;1256;106870;-77
2023/09/22 10:31:57;;;;;;;7.10;5.10;;;;;;;24.54;68.21;99038.40;131103;1255;106231;-75
2023/09/22 10:35:05;;;;;;;7.80;5.10;;;;;;;24.53;68.20;99027.65;131047;1256;107077;-75
2023/09/22 10:38:11;;;;;;;7.90;5.10;;;;;;;24.53;68.34;99026.98;131010;1254;107910;-75
2023/09/22 10:41:17;;;;;;;7.90;4.50;;;;;;;24.53;68.15;99023.29;130996;1264;108745;-75
2023/09/22 10:44:23;;;;;;;8.60;5.20;;;;;;;24.53;67.71;99025.03;131011;1257;107828;-75
2023/09/22 10:47:42;;;;;;;8.20;4.90;;;;;;;24.55;67.51;99027.15;130991;1254;107749;-75
2023/09/22 10:50:53;;;;;;;9.40;4.60;;;;;;;24.55;67.04;99027.10;131131;1254;108559;-75
2023/09/22 10:54:02;;;;;;;7.90;5.10;;;;;;;24.53;66.84;99032.50;131207;1256;107397;-76
2023/09/22 10:57:09;;;;;;;8.90;4.70;;;;;;;24.49;66.64;99035.16;131088;1251;108477;-76
2023/09/22 11:00:18;;;;;;;5.90;4.20;;;;;;;24.45;66.59;99043.27;131025;1266;107739;-76
2023/09/22 11:03:24;;;;;;;6.00;4.30;;;;;;;24.46;66.26;99043.45;131177;1256;108843;-76
2023/09/22 11:06:29;;;;;;;6.00;4.40;;;;;;;24.50;66.11;99046.08;131086;1256;108624;-75
2023/09/22 11:09:38;;;;;;;6.70;4.30;;;;;;;24.52;65.46;99051.21;130987;1251;107395;-75
2023/09/22 11:12:49;;;;;;;5.40;4.00;;;;;;;24.53;65.56;99065.35;131030;1256;108023;-75
2023/09/22 11:15:56;;;;;;;4.80;3.60;;;;;;;24.59;65.18;99067.52;131044;1256;107774;-75
2023/09/22 11:19:08;;;;;;;6.70;4.00;;;;;;;24.70;65.03;99064.45;131096;1251;106621;-75
2023/09/22 11:22:14;;;;;;;7.30;3.60;;;;;;;24.85;64.84;99067.41;131036;1257;108111;-75
2023/09/22 11:25:21;;;;;;;5.50;3.50;;;;;;;24.95;64.36;99068.98;130983;1256;107725;-75
2023/09/22 11:28:27;;;;;;;5.40;3.60;;;;;;;24.98;64.27;99073.89;130970;1257;107915;-76
2023/09/22 11:31:33;;;;;;;7.00;3.60;;;;;;;25.02;63.92;99074.24;131157;1260;107653;-77
2023/09/22 11:34:51;;;;;;;6.80;3.80;;;;;;;25.15;64.04;99079.78;131207;1259;106937;-76
2023/09/22 11:37:56;;;;;;;5.40;3.60;;;;;;;25.34;63.74;99078.10;131056;1257;107695;-76
2023/09/22 11:41:10;;;;;;;6.30;3.50;;;;;;;25.50;63.40;99078.80;131216;1255;108335;-75
2023/09/22 11:44:16;;;;;;;4.70;3.60;;;;;;;25.54;63.18;99086.09;131102;1250;107305;-76
2023/09/22 11:47:23;;;;;;;6.30;3.70;;;;;;;25.51;62.90;99079.61;131050;1256;107947;-74
2023/09/22 11:50:30;;;;;;;6.40;3.70;;;;;;;25.47;62.78;99078.36;131040;1255;107129;-76
2023/09/22 11:53:35;;;;;;;7.30;3.70;;;;;;;25.39;62.66;99079.28;130990;1252;107750;-75
2023/09/22 11:56:41;;;;;;;5.20;3.70;;;;;;;25.32;62.64;99077.40;130993;1257;108117;-76
2023/09/22 11:59:48;;;;;;;5.20;3.60;;;;;;;25.30;62.66;99078.45;131004;1257;107200;-75
2023/09/22 12:02:54;;;;;;;5.70;4.30;;;;;;;25.31;62.58;99079.09;131016;1254;107578;-75
2023/09/22 12:06:00;;;;;;;5.20;3.70;;;;;;;25.36;62.79;99070.39;131029;1256;106768;-76
2023/09/22 12:09:06;;;;;;;5.50;4.20;;;;;;;25.37;62.65;99067.66;131038;1255;107454;-76
2023/09/22 12:12:12;;;;;;;5.70;3.40;;;;;;;25.43;62.60;99065.77;131023;1254;108067;-74
2023/09/22 12:15:18;;;;;;;5.50;3.50;;;;;;;25.57;62.42;99065.88;130994;1251;107618;-74
2023/09/22 12:18:23;;;;;;;7.00;3.60;;;;;;;25.70;61.83;99057.21;130996;1261;108287;-76
2023/09/22 12:21:30;;;;;;;7.00;3.40;;;;;;;25.80;61.41;99054.10;131040;1256;106913;-75
2023/09/22 12:24:36;;;;;;;4.60;3.10;;;;;;;25.87;61.35;99056.94;131069;1264;107274;-75
2023/09/22 12:27:42;;;;;;;5.40;3.40;;;;;;;25.91;61.41;99059.95;131025;1256;108080;-75
2023/09/22 12:30:49;;;;;;;6.30;3.40;;;;;;;25.92;61.23;99059.40;131021;1265;109507;-75
2023/09/22 12:33:54;;;;;;;4.20;3.60;;;;;;;25.91;60.81;99061.15;130994;1257;106720;-75
2023/09/22 12:37:00;;;;;;;7.70;3.20;;;;;;;25.86;60.68;99060.67;131059;1257;108061;-75
2023/09/22 12:40:07;;;;;;;5.20;3.40;;;;;;;25.91;60.92;99054.48;131009;1256;109324;-75
2023/09/22 12:43:13;;;;;;;5.80;3.40;;;;;;;25.99;60.67;99053.35;131050;1254;107537;-75
2023/09/22 12:46:18;;;;;;;8.10;3.80;;;;;;;26.10;60.17;99058.63;130980;1257;108336;-75
2023/09/22 12:49:24;;;;;;;6.90;3.30;;;;;;;26.21;59.91;99058.86;131135;1264;108122;-77
2023/09/22 12:52:30;;;;;;;5.00;3.50;;;;;;;26.28;59.92;99064.00;130970;1256;109571;-75
2023/09/22 12:55:38;;;;;;;5.70;3.20;;;;;;;26.32;59.51;99059.38;131059;1257;107710;-75
2023/09/22 12:58:44;;;;;;;7.80;3.50;;;;;;;26.29;59.32;99063.28;130962;1266;107704;-75
2023/09/22 13:01:49;;;;;;;5.20;3.30;;;;;;;26.15;59.35;99071.38;131025;1251;106237;-75
2023/09/22 13:04:55;;;;;;;5.70;3.90;;;;;;;25.92;59.03;99079.60;131004;1251;107699;-75
2023/09/22 13:08:01;;;;;;;5.70;3.70;;;;;;;25.64;59.29;99081.39;130984;1251;106452;-75
2023/09/22 13:11:06;;;;;;;6.40;3.50;;;;;;;25.40;59.18;99080.26;131001;1257;107625;-75
2023/09/22 13:14:15;;;;;;;4.70;3.30;;;;;;;25.20;59.20;99079.11;131117;1257;106470;-76
2023/09/22 13:17:27;;;;;;;6.70;3.70;;;;;;;25.01;59.15;99077.14;130794;1258;106812;-75
2023/09/22 13:20:37;;;;;;;7.70;4.10;;;;;;;24.85;59.30;99071.79;131200;1257;107146;-75
2023/09/22 13:23:43;;;;;;;4.70;3.80;;;;;;;24.69;59.43;99074.80;130962;1255;107632;-75
2023/09/22 13:26:49;;;;;;;9.00;4.10;;;;;;;24.53;59.29;99080.00;130958;1256;107142;-75
2023/09/22 13:29:54;;;;;;;5.20;4.00;;;;;;;24.40;59.51;99076.99;130989;1254;106443;-76
2023/09/22 13:33:00;;;;;;;6.30;4.00;;;;;;;24.33;59.73;99081.23;130947;1257;108686;-75
2023/09/22 13:36:15;;;;;;;8.20;4.40;;;;;;;24.25;59.85;99082.65;130964;1257;107951;-75
2023/09/22 13:39:20;;;;;;;6.80;4.30;;;;;;;24.17;60.04;99084.61;130978;1260;108771;-75
2023/09/22 13:42:25;;;;;;;9.40;6.70;;;;;;;24.10;60.18;99086.73;131166;1254;107702;-75
2023/09/22 13:45:36;;;;;;;12.30;9.10;;;;;;;24.06;60.02;99085.95;131069;1254;107637;-75
2023/09/22 13:48:42;;;;;;;10.00;7.40;;;;;;;24.06;60.27;99079.26;130979;1252;107456;-75
2023/09/22 13:51:48;;;;;;;6.90;5.30;;;;;;;24.06;60.24;99076.21;130822;1257;217190;-75
2023/09/22 13:54:53;;;;;;;8.30;4.50;;;;;;;24.06;60.39;99079.15;132060;1251;106687;-76
2023/09/22 13:57:59;;;;;;;7.80;4.50;;;;;;;24.07;60.60;99082.14;131084;1256;107055;-76
2023/09/22 14:01:13;;;;;;;6.90;4.40;;;;;;;24.12;60.60;99079.65;131260;1258;108499;-75
2023/09/22 14:04:19;;;;;;;5.10;3.90;;;;;;;24.16;60.64;99075.45;131224;1255;105634;-76
2023/09/22 14:07:24;;;;;;;6.90;3.90;;;;;;;24.18;60.63;99078.89;131128;1258;108132;-78
2023/09/22 14:10:30;;;;;;;6.00;4.20;;;;;;;24.19;60.56;99081.40;131141;1257;107515;-77
2023/09/22 14:13:35;;;;;;;7.90;3.80;;;;;;;24.21;60.52;99077.21;131372;1255;107660;-76
2023/09/22 14:16:41;;;;;;;4.60;3.30;;;;;;;24.23;60.61;99070.11;131152;1256;108391;-76